createdAt,value
2022-11-16T00:00:04.281Z,94947
2022-11-16T00:00:59.083Z,94948
2022-11-16T00:01:59.208Z,94937
2022-11-16T00:02:59.116Z,94937
2022-11-16T00:04:59.130Z,94944
2022-11-16T00:06:59.159Z,94941
2022-11-16T00:07:59.157Z,94942
2022-11-16T00:08:59.124Z,94935
2022-11-16T00:09:59.148Z,94942
2022-11-16T00:10:59.121Z,94945
2022-11-16T00:12:59.123Z,94950
2022-11-16T00:13:59.150Z,94952
2022-11-16T00:14:59.140Z,94955
2022-11-16T00:15:59.137Z,94956
2022-11-16T00:16:59.141Z,94955
2022-11-16T00:17:59.122Z,94955
2022-11-16T00:18:59.175Z,94953
2022-11-16T00:20:59.144Z,94957
2022-11-16T00:21:59.142Z,94955
2022-11-16T00:22:59.132Z,94956
2022-11-16T00:26:59.143Z,94961
2022-11-16T00:29:59.141Z,94958
2022-11-16T00:30:59.128Z,94959
2022-11-16T00:31:59.180Z,94956
2022-11-16T00:32:59.125Z,94951
2022-11-16T00:33:59.147Z,94947
2022-11-16T00:34:59.128Z,94943
2022-11-16T00:37:59.168Z,94940
2022-11-16T00:38:59.144Z,94944
2022-11-16T00:39:59.142Z,94941
2022-11-16T00:40:59.147Z,94941
2022-11-16T00:41:59.124Z,94941
2022-11-16T00:42:59.133Z,94941
2022-11-16T00:43:59.156Z,94941
2022-11-16T00:45:59.143Z,94938
2022-11-16T00:46:59.146Z,94944
2022-11-16T00:48:00.672Z,94944
2022-11-16T00:48:59.131Z,94947
2022-11-16T00:49:59.155Z,94949
2022-11-16T00:51:59.151Z,94956
2022-11-16T00:52:59.162Z,94958
2022-11-16T00:53:59.143Z,94958
2022-11-16T00:55:59.154Z,94962
2022-11-16T00:56:59.120Z,94964
2022-11-16T00:57:59.154Z,94969
2022-11-16T00:58:59.139Z,94974
2022-11-16T00:59:59.151Z,94979
2022-11-16T01:01:59.162Z,94976
2022-11-16T01:02:59.184Z,94979
2022-11-16T01:03:59.147Z,94979
2022-11-16T01:04:59.167Z,94984
2022-11-16T01:07:59.174Z,94985
2022-11-16T01:09:59.157Z,94992
2022-11-16T01:10:59.202Z,94988
2022-11-16T01:11:59.160Z,94989
2022-11-16T01:12:59.238Z,94982
2022-11-16T01:13:59.179Z,94986
2022-11-16T01:14:59.159Z,94986
2022-11-16T01:16:59.193Z,94987
2022-11-16T01:17:59.203Z,94988
2022-11-16T01:18:59.191Z,94988
2022-11-16T01:19:59.214Z,94986
2022-11-16T01:20:59.208Z,94987
2022-11-16T01:21:59.188Z,94992
2022-11-16T01:22:59.218Z,94988
2022-11-16T01:23:59.183Z,94988
2022-11-16T01:24:59.243Z,94991
2022-11-16T01:25:59.227Z,94994
2022-11-16T01:26:59.206Z,94994
2022-11-16T01:27:59.197Z,94997
2022-11-16T01:28:59.220Z,94999
2022-11-16T01:29:59.215Z,95000
2022-11-16T01:30:59.293Z,95005
2022-11-16T01:31:59.213Z,95005
2022-11-16T01:32:59.206Z,95004
2022-11-16T01:33:59.215Z,95002
2022-11-16T01:34:59.194Z,95007
2022-11-16T01:35:59.272Z,95009
2022-11-16T01:36:59.234Z,95009
2022-11-16T01:37:59.216Z,95013
2022-11-16T01:38:59.226Z,95013
2022-11-16T01:39:59.219Z,95011
2022-11-16T01:41:59.261Z,95011
2022-11-16T01:42:59.243Z,95013
2022-11-16T01:43:59.295Z,95012
2022-11-16T01:44:59.268Z,95012
2022-11-16T01:49:59.276Z,95014
2022-11-16T01:50:59.255Z,95019
2022-11-16T01:51:59.293Z,95020
2022-11-16T01:52:59.259Z,95024
2022-11-16T01:53:59.324Z,95020
2022-11-16T01:55:59.304Z,95028
2022-11-16T01:56:59.310Z,95028
2022-11-16T01:57:59.266Z,95033
2022-11-16T01:58:59.292Z,95031
2022-11-16T01:59:59.293Z,95038
2022-11-16T02:00:59.331Z,95038
2022-11-16T02:01:59.322Z,95037
2022-11-16T02:02:59.287Z,95037
2022-11-16T02:03:59.310Z,95042
2022-11-16T02:04:59.282Z,95042
2022-11-16T02:05:59.308Z,95042
2022-11-16T02:06:59.427Z,95043
2022-11-16T02:07:59.303Z,95041
2022-11-16T02:09:59.321Z,95038
2022-11-16T02:10:59.287Z,95040
2022-11-16T02:11:59.395Z,95036
2022-11-16T02:12:59.315Z,95036
2022-11-16T02:13:59.344Z,95037
2022-11-16T02:14:59.345Z,95032
2022-11-16T02:15:59.328Z,95032
2022-11-16T02:16:59.307Z,95029
2022-11-16T02:17:59.354Z,95029
2022-11-16T02:18:59.338Z,95026
2022-11-16T02:19:59.374Z,95017
2022-11-16T02:20:59.359Z,95017
2022-11-16T02:21:59.342Z,95016
2022-11-16T02:22:59.403Z,95017
2022-11-16T02:24:59.411Z,95018
2022-11-16T02:25:59.362Z,95018
2022-11-16T02:26:59.362Z,95018
2022-11-16T02:27:59.402Z,95012
2022-11-16T02:28:59.374Z,95012
2022-11-16T02:29:59.362Z,95015
2022-11-16T02:30:59.360Z,95008
2022-11-16T02:31:59.380Z,95006
2022-11-16T02:32:59.407Z,95005
2022-11-16T02:33:59.368Z,95005
2022-11-16T02:34:59.393Z,95002
2022-11-16T02:35:59.380Z,95004
2022-11-16T02:36:59.364Z,95003
2022-11-16T02:37:59.424Z,95006
2022-11-16T02:38:59.399Z,95002
2022-11-16T02:39:59.379Z,95002
2022-11-16T02:40:59.411Z,94997
2022-11-16T02:41:59.415Z,94999
2022-11-16T02:42:59.407Z,95005
2022-11-16T02:43:59.412Z,95005
2022-11-16T02:44:59.393Z,95003
2022-11-16T02:45:59.395Z,95003
2022-11-16T02:46:59.420Z,94998
2022-11-16T02:47:59.428Z,94998
2022-11-16T02:48:59.409Z,95004
2022-11-16T02:49:59.419Z,95005
2022-11-16T02:50:59.447Z,95009
2022-11-16T02:51:59.440Z,95009
2022-11-16T02:52:59.422Z,95010
2022-11-16T02:53:59.411Z,95008
2022-11-16T02:54:59.433Z,95012
2022-11-16T02:55:59.436Z,95015
2022-11-16T02:56:59.426Z,95015
2022-11-16T02:57:59.472Z,95016
2022-11-16T02:58:59.439Z,95014
2022-11-16T02:59:59.443Z,95014
2022-11-16T03:00:59.456Z,95007
2022-11-16T03:01:59.432Z,95008
2022-11-16T03:02:59.420Z,95008
2022-11-16T03:03:59.483Z,95001
2022-11-16T03:04:59.441Z,95001
2022-11-16T03:05:59.441Z,95000
2022-11-16T03:06:59.469Z,94998
2022-11-16T03:07:59.446Z,94997
2022-11-16T03:08:59.510Z,94996
2022-11-16T03:09:59.467Z,94996
2022-11-16T03:11:00.762Z,94993
2022-11-16T03:12:59.465Z,94994
2022-11-16T03:13:59.483Z,94994
2022-11-16T03:14:59.485Z,94996
2022-11-16T03:15:59.466Z,94991
2022-11-16T03:16:59.468Z,94987
2022-11-16T03:17:59.506Z,94983
2022-11-16T03:19:59.456Z,94984
2022-11-16T03:20:59.583Z,94979
2022-11-16T03:21:59.491Z,94979
2022-11-16T03:22:59.485Z,94978
2022-11-16T03:23:59.491Z,94967
2022-11-16T03:25:59.487Z,94972
2022-11-16T03:26:59.500Z,94976
2022-11-16T03:27:59.510Z,94977
2022-11-16T03:28:59.551Z,94978
2022-11-16T03:29:59.496Z,94978
2022-11-16T03:30:59.524Z,94972
2022-11-16T03:31:59.530Z,94980
2022-11-16T03:32:59.518Z,94980
2022-11-16T03:33:59.514Z,94985
2022-11-16T03:34:59.516Z,94991
2022-11-16T03:35:59.547Z,94999
2022-11-16T03:36:59.583Z,94994
2022-11-16T03:37:59.510Z,94994
2022-11-16T03:38:59.569Z,94990
2022-11-16T03:39:59.535Z,94990
2022-11-16T03:40:59.545Z,94984
2022-11-16T03:41:59.528Z,94984
2022-11-16T03:42:59.555Z,94984
2022-11-16T03:43:59.570Z,94990
2022-11-16T03:44:59.564Z,94990
2022-11-16T03:45:59.540Z,94990
2022-11-16T03:46:59.538Z,94985
2022-11-16T03:47:59.553Z,94982
2022-11-16T03:48:59.606Z,94980
2022-11-16T03:49:59.540Z,94984
2022-11-16T03:50:59.564Z,94990
2022-11-16T03:51:59.592Z,94989
2022-11-16T03:52:59.579Z,94989
2022-11-16T03:53:59.643Z,94992
2022-11-16T03:54:59.598Z,94992
2022-11-16T03:55:59.548Z,94992
2022-11-16T03:57:59.591Z,94996
2022-11-16T03:58:59.605Z,94996
2022-11-16T03:59:59.604Z,95001
2022-11-16T04:00:59.621Z,95001
2022-11-16T04:02:59.607Z,95003
2022-11-16T04:03:59.605Z,95004
2022-11-16T04:06:59.700Z,95000
2022-11-16T04:07:59.609Z,95001
2022-11-16T04:10:59.622Z,94988
2022-11-16T04:11:59.637Z,94988
2022-11-16T04:12:59.616Z,94988
2022-11-16T04:13:59.620Z,94983
2022-11-16T04:15:59.622Z,94982
2022-11-16T04:17:59.690Z,94982
2022-11-16T04:18:59.649Z,94984
2022-11-16T04:19:59.628Z,94984
2022-11-16T04:20:59.665Z,94988
2022-11-16T04:21:59.669Z,94988
2022-11-16T04:23:59.709Z,94981
2022-11-16T04:24:59.636Z,94981
2022-11-16T04:25:59.648Z,94983
2022-11-16T04:27:59.633Z,94982
2022-11-16T04:30:59.692Z,94976
2022-11-16T04:31:59.705Z,94972
2022-11-16T04:32:59.659Z,94972
2022-11-16T04:33:59.659Z,94972
2022-11-16T04:34:59.710Z,94972
2022-11-16T04:35:59.675Z,94974
2022-11-16T04:36:59.665Z,94974
2022-11-16T04:37:59.672Z,94974
2022-11-16T04:38:59.674Z,94975
2022-11-16T04:39:59.685Z,94977
2022-11-16T04:40:59.709Z,94978
2022-11-16T04:41:59.712Z,94981
2022-11-16T04:42:59.690Z,94980
2022-11-16T04:43:59.693Z,94984
2022-11-16T04:44:59.735Z,94983
2022-11-16T04:45:59.705Z,94983
2022-11-16T04:46:59.935Z,94982
2022-11-16T04:47:59.707Z,94982
2022-11-16T04:48:59.705Z,94988
2022-11-16T04:49:59.751Z,94989
2022-11-16T04:50:59.706Z,94989
2022-11-16T04:51:59.730Z,94987
2022-11-16T04:52:59.747Z,94987
2022-11-16T04:53:59.695Z,94987
2022-11-16T04:54:59.744Z,94984
2022-11-16T04:56:01.011Z,94980
2022-11-16T04:56:59.721Z,94979
2022-11-16T04:57:59.707Z,94979
2022-11-16T04:58:59.751Z,94984
2022-11-16T04:59:59.755Z,94983
2022-11-16T05:00:59.797Z,94983
2022-11-16T05:01:59.741Z,94977
2022-11-16T05:03:01.569Z,94977
2022-11-16T05:03:59.755Z,94977
2022-11-16T05:04:59.816Z,94971
2022-11-16T05:05:59.761Z,94972
2022-11-16T05:06:59.796Z,94972
2022-11-16T05:07:59.775Z,94966
2022-11-16T05:08:59.741Z,94966
2022-11-16T05:09:59.785Z,94970
2022-11-16T05:10:59.784Z,94967
2022-11-16T05:11:59.758Z,94969
2022-11-16T05:12:59.811Z,94970
2022-11-16T05:13:59.766Z,94970
2022-11-16T05:14:59.802Z,94961
2022-11-16T05:15:59.757Z,94958
2022-11-16T05:16:59.780Z,94958
2022-11-16T05:17:59.824Z,94958
2022-11-16T05:19:59.779Z,94963
2022-11-16T05:20:59.796Z,94963
2022-11-16T05:21:59.825Z,94963
2022-11-16T05:24:59.810Z,94960
2022-11-16T05:25:59.795Z,94956
2022-11-16T05:27:59.824Z,94956
2022-11-16T05:30:59.807Z,94959
2022-11-16T05:31:59.819Z,94956
2022-11-16T05:35:59.857Z,94963
2022-11-16T05:36:59.823Z,94967
2022-11-16T05:37:59.879Z,94966
2022-11-16T05:38:59.833Z,94966
2022-11-16T05:39:59.823Z,94968
2022-11-16T05:40:59.882Z,94967
2022-11-16T05:42:59.815Z,94964
2022-11-16T05:43:59.860Z,94968
2022-11-16T05:45:59.855Z,94972
2022-11-16T05:46:59.840Z,94975
2022-11-16T05:47:59.883Z,94973
2022-11-16T05:48:59.878Z,94971
2022-11-16T05:49:59.869Z,94968
2022-11-16T05:50:59.861Z,94969
2022-11-16T05:51:59.887Z,94968
2022-11-16T05:52:59.852Z,94970
2022-11-16T05:53:59.937Z,94972
2022-11-16T05:54:59.859Z,94970
2022-11-16T05:55:59.920Z,94972
2022-11-16T05:58:59.958Z,94977
2022-11-16T05:59:59.876Z,94977
2022-11-16T06:00:59.914Z,94977
2022-11-16T06:01:59.899Z,94979
2022-11-16T06:02:59.967Z,94980
2022-11-16T06:04:00.009Z,94980
2022-11-16T06:04:59.890Z,94980
2022-11-16T06:05:59.908Z,94986
2022-11-16T06:06:59.953Z,94985
2022-11-16T06:07:59.876Z,94985
2022-11-16T06:09:00.102Z,94986
2022-11-16T06:09:59.909Z,94986
2022-11-16T06:11:59.972Z,94986
2022-11-16T06:12:59.939Z,94986
2022-11-16T06:15:59.953Z,94985
2022-11-16T06:16:59.959Z,94994
2022-11-16T06:17:59.924Z,94990
2022-11-16T06:19:59.931Z,94988
2022-11-16T06:20:59.925Z,94987
2022-11-16T06:22:00.024Z,94988
2022-11-16T06:22:59.948Z,94983
2022-11-16T06:23:59.988Z,94983
2022-11-16T06:24:59.959Z,94985
2022-11-16T06:25:59.978Z,94982
2022-11-16T06:28:59.972Z,94986
2022-11-16T06:29:59.988Z,94988
2022-11-16T06:30:59.955Z,94988
2022-11-16T06:31:59.983Z,94988
2022-11-16T06:32:59.961Z,94988
2022-11-16T06:33:59.977Z,94989
2022-11-16T06:34:59.998Z,94990
2022-11-16T06:37:00.039Z,94993
2022-11-16T06:37:59.975Z,94997
2022-11-16T06:39:00.001Z,94999
2022-11-16T06:40:00.054Z,94999
2022-11-16T06:40:59.986Z,94996
2022-11-16T06:42:00.020Z,94997
2022-11-16T06:43:00.001Z,94997
2022-11-16T06:44:00.027Z,95000
2022-11-16T06:45:00.024Z,95003
2022-11-16T06:46:00.042Z,95005
2022-11-16T06:47:00.002Z,95004
2022-11-16T06:48:00.024Z,95004
2022-11-16T06:49:00.007Z,95009
2022-11-16T06:50:00.045Z,95012
2022-11-16T06:51:00.014Z,95012
2022-11-16T06:52:00.025Z,95013
2022-11-16T06:53:00.003Z,95017
2022-11-16T06:54:00.001Z,95017
2022-11-16T06:55:00.086Z,95014
2022-11-16T06:56:00.021Z,95014
2022-11-16T06:57:00.100Z,95013
2022-11-16T06:58:00.033Z,95008
2022-11-16T06:59:00.032Z,95008
2022-11-16T07:00:00.038Z,95008
2022-11-16T07:01:00.017Z,95010
2022-11-16T07:02:00.207Z,95011
2022-11-16T07:03:00.095Z,95011
2022-11-16T07:04:00.094Z,95009
2022-11-16T07:05:03.545Z,95012
2022-11-16T07:06:00.056Z,95010
2022-11-16T07:07:00.153Z,95014
2022-11-16T07:08:00.078Z,95015
2022-11-16T07:09:00.101Z,95015
2022-11-16T07:10:00.096Z,95016
2022-11-16T07:11:03.999Z,95013
2022-11-16T07:12:00.125Z,95013
2022-11-16T07:13:00.101Z,95014
2022-11-16T07:14:00.087Z,95019
2022-11-16T07:15:00.104Z,95019
2022-11-16T07:16:00.093Z,95020
2022-11-16T07:17:03.944Z,95018
2022-11-16T07:18:00.126Z,95023
2022-11-16T07:19:00.100Z,95024
2022-11-16T07:20:00.183Z,95023
2022-11-16T07:21:00.091Z,95020
2022-11-16T07:22:00.104Z,95020
2022-11-16T07:23:00.155Z,95022
2022-11-16T07:24:00.105Z,95019
2022-11-16T07:25:00.147Z,95023
2022-11-16T07:26:00.126Z,95021
2022-11-16T07:27:00.098Z,95027
2022-11-16T07:28:00.154Z,95027
2022-11-16T07:29:00.120Z,95026
2022-11-16T07:30:00.149Z,95025
2022-11-16T07:31:00.143Z,95025
2022-11-16T07:32:00.147Z,95026
2022-11-16T07:33:00.167Z,95034
2022-11-16T07:34:00.131Z,95031
2022-11-16T07:35:00.119Z,95036
2022-11-16T07:36:00.131Z,95035
2022-11-16T07:37:00.116Z,95035
2022-11-16T07:38:00.244Z,95039
2022-11-16T07:39:00.149Z,95041
2022-11-16T07:40:00.188Z,95045
2022-11-16T07:41:00.124Z,95041
2022-11-16T07:42:00.145Z,95040
2022-11-16T07:43:00.185Z,95043
2022-11-16T07:44:00.173Z,95043
2022-11-16T07:46:21.391Z,95043
2022-11-16T07:48:00.156Z,95042
2022-11-16T07:51:00.214Z,95044
2022-11-16T07:52:00.160Z,95044
2022-11-16T07:53:00.160Z,95045
2022-11-16T07:54:00.183Z,95045
2022-11-16T07:55:00.178Z,95049
2022-11-16T07:56:00.275Z,95050
2022-11-16T07:57:00.193Z,95047
2022-11-16T07:58:00.231Z,95053
2022-11-16T07:59:00.157Z,95053
2022-11-16T08:00:00.175Z,95058
2022-11-16T08:01:00.225Z,95055
2022-11-16T08:02:00.360Z,95060
2022-11-16T08:03:00.233Z,95059
2022-11-16T08:04:00.210Z,95058
2022-11-16T08:05:00.200Z,95060
2022-11-16T08:06:00.197Z,95061
2022-11-16T08:07:00.293Z,95061
2022-11-16T08:08:00.275Z,95059
2022-11-16T08:09:00.214Z,95059
2022-11-16T08:10:00.246Z,95059
2022-11-16T08:11:00.217Z,95059
2022-11-16T08:12:00.193Z,95059
2022-11-16T08:13:00.204Z,95066
2022-11-16T08:14:00.373Z,95062
2022-11-16T08:15:00.209Z,95062
2022-11-16T08:16:00.219Z,95064
2022-11-16T08:17:00.229Z,95063
2022-11-16T08:18:00.258Z,95062
2022-11-16T08:19:00.260Z,95067
2022-11-16T08:20:00.307Z,95066
2022-11-16T08:21:00.275Z,95058
2022-11-16T08:22:00.259Z,95061
2022-11-16T08:23:00.243Z,95061
2022-11-16T08:24:00.280Z,95054
2022-11-16T08:25:00.237Z,95059
2022-11-16T08:26:00.298Z,95057
2022-11-16T08:27:00.239Z,95057
2022-11-16T08:28:00.257Z,95046
2022-11-16T08:29:00.243Z,95043
2022-11-16T08:30:00.269Z,95043
2022-11-16T08:31:00.252Z,95042
2022-11-16T08:32:00.296Z,95042
2022-11-16T08:33:00.264Z,95042
2022-11-16T08:34:00.339Z,95044
2022-11-16T08:35:00.290Z,95046
2022-11-16T08:36:00.259Z,95046
2022-11-16T08:37:00.487Z,95051
2022-11-16T08:38:00.286Z,95048
2022-11-16T08:39:00.325Z,95046
2022-11-16T08:40:00.307Z,95046
2022-11-16T08:41:00.298Z,95046
2022-11-16T08:42:00.325Z,95044
2022-11-16T08:43:00.324Z,95044
2022-11-16T08:44:00.288Z,95051
2022-11-16T08:45:00.309Z,95051
2022-11-16T08:46:00.318Z,95047
2022-11-16T08:47:00.346Z,95050
2022-11-16T08:48:04.045Z,95050
2022-11-16T08:49:00.382Z,95048
2022-11-16T08:50:00.312Z,95052
2022-11-16T08:51:16.859Z,95052
2022-11-16T08:52:00.360Z,95053
2022-11-16T08:53:00.306Z,95053
2022-11-16T08:54:00.332Z,95051
2022-11-16T08:55:00.433Z,95049
2022-11-16T08:56:00.340Z,95053
2022-11-16T08:57:00.346Z,95052
2022-11-16T08:58:00.351Z,95056
2022-11-16T08:59:00.336Z,95054
2022-11-16T09:00:00.336Z,95054
2022-11-16T09:01:00.381Z,95055
2022-11-16T09:02:00.431Z,95050
2022-11-16T09:03:00.354Z,95049
2022-11-16T09:04:00.363Z,95053
2022-11-16T09:05:00.414Z,95046
2022-11-16T09:06:00.355Z,95048
2022-11-16T09:07:00.494Z,95051
2022-11-16T09:08:00.364Z,95050
2022-11-16T09:09:00.374Z,95050
2022-11-16T09:10:00.419Z,95052
2022-11-16T09:11:00.349Z,95054
2022-11-16T09:12:00.437Z,95051
2022-11-16T09:13:00.371Z,95060
2022-11-16T09:14:00.382Z,95060
2022-11-16T09:15:00.419Z,95060
2022-11-16T09:16:00.392Z,95057
2022-11-16T09:17:00.376Z,95057
2022-11-16T09:18:00.441Z,95059
2022-11-16T09:19:00.379Z,95059
2022-11-16T09:20:00.428Z,95063
2022-11-16T09:21:00.419Z,95059
2022-11-16T09:22:00.437Z,95063
2022-11-16T09:23:00.450Z,95058
2022-11-16T09:24:00.451Z,95060
2022-11-16T09:25:00.431Z,95057
2022-11-16T09:26:00.440Z,95058
2022-11-16T09:27:00.422Z,95058
2022-11-16T09:28:00.429Z,95058
2022-11-16T09:29:00.423Z,95050
2022-11-16T09:30:00.488Z,95058
2022-11-16T09:31:00.418Z,95058
2022-11-16T09:32:00.434Z,95063
2022-11-16T09:33:00.454Z,95057
2022-11-16T09:34:00.425Z,95059
2022-11-16T09:35:00.431Z,95065
2022-11-16T09:36:00.666Z,95070
2022-11-16T09:37:00.465Z,95056
2022-11-16T09:38:00.479Z,95054
2022-11-16T09:39:30.713Z,95057
2022-11-16T09:40:00.446Z,95051
2022-11-16T09:41:00.474Z,95062
2022-11-16T09:42:00.567Z,95056
2022-11-16T09:43:00.466Z,95059
2022-11-16T09:44:00.467Z,95051
2022-11-16T09:45:00.467Z,95051
2022-11-16T09:46:00.498Z,95056
2022-11-16T09:47:00.452Z,95055
2022-11-16T09:48:00.482Z,95055
2022-11-16T09:49:00.462Z,95063
2022-11-16T09:51:00.506Z,95065
2022-11-16T09:52:00.500Z,95061
2022-11-16T09:53:00.493Z,95065
2022-11-16T09:54:00.503Z,95062
2022-11-16T09:55:00.484Z,95064
2022-11-16T09:56:00.517Z,95062
2022-11-16T09:57:00.475Z,95060
2022-11-16T09:58:00.502Z,95064
2022-11-16T09:59:00.579Z,95069
2022-11-16T10:00:00.508Z,95066
2022-11-16T10:01:00.596Z,95064
2022-11-16T10:02:00.524Z,95065
2022-11-16T10:03:00.480Z,95065
2022-11-16T10:04:00.524Z,95059
2022-11-16T10:05:00.528Z,95063
2022-11-16T10:06:00.525Z,95063
2022-11-16T10:07:00.591Z,95063
2022-11-16T10:08:00.529Z,95063
2022-11-16T10:09:00.537Z,95063
2022-11-16T10:10:00.514Z,95065
2022-11-16T10:11:00.561Z,95060
2022-11-16T10:12:00.529Z,95060
2022-11-16T10:13:00.529Z,95060
2022-11-16T10:14:04.229Z,95055
2022-11-16T10:15:00.514Z,95052
2022-11-16T10:16:00.540Z,95052
2022-11-16T10:17:00.570Z,95052
2022-11-16T10:18:00.543Z,95051
2022-11-16T10:19:00.626Z,95050
2022-11-16T10:20:00.543Z,95047
2022-11-16T10:21:00.543Z,95047
2022-11-16T10:22:00.610Z,95043
2022-11-16T10:23:00.576Z,95043
2022-11-16T10:25:00.570Z,95040
2022-11-16T10:26:00.583Z,95036
2022-11-16T10:27:00.657Z,95035
2022-11-16T10:28:00.582Z,95034
2022-11-16T10:29:00.580Z,95031
2022-11-16T10:30:00.564Z,95031
2022-11-16T10:31:00.572Z,95034
2022-11-16T10:32:00.587Z,95033
2022-11-16T10:33:00.630Z,95035
2022-11-16T10:34:00.575Z,95037
2022-11-16T10:35:00.621Z,95037
2022-11-16T10:36:00.581Z,95032
2022-11-16T10:37:00.597Z,95030
2022-11-16T10:38:00.612Z,95030
2022-11-16T10:39:00.639Z,95030
2022-11-16T10:40:00.632Z,95028
2022-11-16T10:41:00.604Z,95025
2022-11-16T10:42:06.075Z,95025
2022-11-16T10:43:00.627Z,95020
2022-11-16T10:44:00.591Z,95020
2022-11-16T10:45:00.666Z,95013
2022-11-16T10:46:00.603Z,95013
2022-11-16T10:47:00.604Z,95012
2022-11-16T10:49:00.618Z,95012
2022-11-16T10:50:00.626Z,95010
2022-11-16T10:52:00.654Z,95009
2022-11-16T10:53:00.648Z,95013
2022-11-16T10:55:00.653Z,95011
2022-11-16T10:56:00.641Z,95011
2022-11-16T10:57:00.642Z,95004
2022-11-16T10:58:00.697Z,95013
2022-11-16T10:59:00.649Z,95012
2022-11-16T11:00:00.643Z,95012
2022-11-16T11:01:00.763Z,95010
2022-11-16T11:02:00.669Z,95013
2022-11-16T11:03:00.738Z,95009
2022-11-16T11:04:00.663Z,95012
2022-11-16T11:05:00.646Z,95010
2022-11-16T11:08:00.710Z,95010
2022-11-16T11:09:00.721Z,95010
2022-11-16T11:10:00.678Z,95009
2022-11-16T11:11:00.721Z,95008
2022-11-16T11:12:00.679Z,95004
2022-11-16T11:13:00.672Z,95004
2022-11-16T11:14:00.679Z,95004
2022-11-16T11:15:00.739Z,95005
2022-11-16T11:16:00.685Z,95004
2022-11-16T11:17:00.668Z,95004
2022-11-16T11:18:00.696Z,95001
2022-11-16T11:19:00.695Z,94998
2022-11-16T11:20:00.704Z,94994
2022-11-16T11:21:00.780Z,94989
2022-11-16T11:22:00.713Z,94993
2022-11-16T11:23:00.701Z,94993
2022-11-16T11:24:16.397Z,94990
2022-11-16T11:25:00.700Z,94990
2022-11-16T11:26:00.746Z,94988
2022-11-16T11:27:00.739Z,94987
2022-11-16T11:29:00.741Z,94991
2022-11-16T11:30:00.722Z,94988
2022-11-16T11:31:00.755Z,94986
2022-11-16T11:33:00.819Z,94986
2022-11-16T11:34:00.773Z,94985
2022-11-16T11:35:00.730Z,94982
2022-11-16T11:36:00.750Z,94982
2022-11-16T11:37:00.788Z,94980
2022-11-16T11:38:07.271Z,94979
2022-11-16T11:39:00.964Z,94979
2022-11-16T11:42:00.759Z,94987
2022-11-16T11:43:00.768Z,94992
2022-11-16T11:44:00.779Z,94988
2022-11-16T11:45:00.820Z,94989
2022-11-16T11:46:00.780Z,94984
2022-11-16T11:47:55.504Z,94985
2022-11-16T11:49:00.767Z,94984
2022-11-16T11:50:00.796Z,94981
2022-11-16T11:51:00.810Z,94981
2022-11-16T11:52:00.817Z,94975
2022-11-16T11:53:00.800Z,94971
2022-11-16T11:54:00.814Z,94967
2022-11-16T11:55:00.788Z,94967
2022-11-16T11:56:00.783Z,94967
2022-11-16T11:57:00.820Z,94966
2022-11-16T11:59:00.816Z,94961
2022-11-16T12:00:00.795Z,94961
2022-11-16T12:01:00.816Z,94960
2022-11-16T12:02:00.855Z,94961
2022-11-16T12:03:00.869Z,94963
2022-11-16T12:04:00.861Z,94964
2022-11-16T12:06:00.834Z,94957
2022-11-16T12:08:00.828Z,94958
2022-11-16T12:09:00.866Z,94959
2022-11-16T12:10:00.835Z,94960
2022-11-16T12:11:00.853Z,94961
2022-11-16T12:12:00.874Z,94963
2022-11-16T12:13:00.894Z,94963
2022-11-16T12:14:00.875Z,94964
2022-11-16T12:15:00.876Z,94964
2022-11-16T12:16:00.847Z,94963
2022-11-16T12:17:00.890Z,94962
2022-11-16T12:18:00.830Z,94962
2022-11-16T12:20:00.949Z,94958
2022-11-16T12:21:00.867Z,94961
2022-11-16T12:22:00.883Z,94958
2022-11-16T12:23:03.957Z,94960
2022-11-16T12:24:00.872Z,94956
2022-11-16T12:25:00.899Z,94955
2022-11-16T12:27:00.922Z,94953
2022-11-16T12:29:00.884Z,94955
2022-11-16T12:31:00.888Z,94944
2022-11-16T12:32:00.965Z,94948
2022-11-16T12:33:00.891Z,94948
2022-11-16T12:34:00.889Z,94953
2022-11-16T12:35:00.913Z,94949
2022-11-16T12:36:00.909Z,94947
2022-11-16T12:37:00.942Z,94949
2022-11-16T12:38:00.969Z,94946
2022-11-16T12:39:00.922Z,94943
2022-11-16T12:40:00.929Z,94943
2022-11-16T12:41:00.889Z,94943
2022-11-16T12:42:00.951Z,94941
2022-11-16T12:43:00.934Z,94940
2022-11-16T12:45:00.979Z,94938
2022-11-16T12:46:00.922Z,94938
2022-11-16T12:49:00.909Z,94931
2022-11-16T12:50:00.917Z,94930
2022-11-16T12:51:00.984Z,94923
2022-11-16T12:52:00.967Z,94921
2022-11-16T12:53:00.922Z,94921
2022-11-16T12:55:25.438Z,94908
2022-11-16T12:56:00.948Z,94907
2022-11-16T12:57:00.983Z,94908
2022-11-16T12:58:00.966Z,94908
2022-11-16T12:59:00.957Z,94902
2022-11-16T13:00:01.000Z,94902
2022-11-16T13:01:00.992Z,94902
2022-11-16T13:02:01.016Z,94899
2022-11-16T13:03:00.955Z,94899
2022-11-16T13:05:01.014Z,94898
2022-11-16T13:06:00.947Z,94891
2022-11-16T13:07:01.538Z,94890
2022-11-16T13:09:01.081Z,94892
2022-11-16T13:10:01.010Z,94892
2022-11-16T13:11:00.994Z,94892
2022-11-16T13:12:01.023Z,94892
2022-11-16T13:14:01.328Z,94890
2022-11-16T13:15:01.029Z,94891
2022-11-16T13:16:00.994Z,94892
2022-11-16T13:19:01.006Z,94884
2022-11-16T13:20:00.978Z,94884
2022-11-16T13:21:01.057Z,94878
2022-11-16T13:24:01.015Z,94875
2022-11-16T13:25:01.076Z,94874
2022-11-16T13:27:01.018Z,94878
2022-11-16T13:28:01.023Z,94877
2022-11-16T13:29:01.038Z,94876
2022-11-16T13:30:01.057Z,94870
2022-11-16T13:31:01.053Z,94865
2022-11-16T13:32:01.046Z,94859
2022-11-16T13:34:01.030Z,94858
2022-11-16T13:35:01.077Z,94856
2022-11-16T13:36:01.038Z,94855
2022-11-16T13:37:01.041Z,94855
2022-11-16T13:39:01.069Z,94854
2022-11-16T13:40:01.079Z,94851
2022-11-16T13:41:01.047Z,94846
2022-11-16T13:42:01.067Z,94846
2022-11-16T13:43:01.120Z,94847
2022-11-16T13:44:01.076Z,94847
2022-11-16T13:45:01.123Z,94839
2022-11-16T13:46:01.077Z,94840
2022-11-16T13:47:01.079Z,94840
2022-11-16T13:50:01.111Z,94842
2022-11-16T13:51:01.135Z,94845
2022-11-16T13:52:17.328Z,94846
2022-11-16T13:54:43.990Z,94849
2022-11-16T13:57:01.103Z,94847
2022-11-16T13:58:01.146Z,94846
2022-11-16T13:59:01.115Z,94852
2022-11-16T14:00:01.122Z,94845
2022-11-16T14:01:01.156Z,94845
2022-11-16T14:02:01.124Z,94842
2022-11-16T14:03:01.434Z,94845
2022-11-16T14:04:01.112Z,94845
2022-11-16T14:06:01.177Z,94838
2022-11-16T14:07:01.280Z,94838
2022-11-16T14:09:01.129Z,94840
2022-11-16T14:12:01.140Z,94840
2022-11-16T14:13:01.179Z,94840
2022-11-16T14:14:01.165Z,94840
2022-11-16T14:16:01.184Z,94832
2022-11-16T14:17:01.142Z,94832
2022-11-16T14:19:01.167Z,94830
2022-11-16T14:20:01.180Z,94832
2022-11-16T14:21:01.194Z,94829
2022-11-16T14:22:01.179Z,94836
2022-11-16T14:23:01.198Z,94835
2022-11-16T14:24:01.169Z,94835
2022-11-16T14:25:01.170Z,94837
2022-11-16T14:26:01.214Z,94830
2022-11-16T14:27:01.167Z,94830
2022-11-16T14:29:01.204Z,94828
2022-11-16T14:30:01.193Z,94821
2022-11-16T14:31:01.220Z,94819
2022-11-16T14:32:01.168Z,94819
2022-11-16T14:33:01.191Z,94817
2022-11-16T14:34:01.209Z,94819
2022-11-16T14:35:01.202Z,94818
2022-11-16T14:37:01.222Z,94819
2022-11-16T14:39:01.221Z,94819
2022-11-16T14:40:01.193Z,94819
2022-11-16T14:41:01.257Z,94817
2022-11-16T14:42:01.219Z,94822
2022-11-16T14:43:15.820Z,94822
2022-11-16T14:45:01.214Z,94824
2022-11-16T14:47:01.268Z,94827